Terminal Aerodrome Forecast
Issued by NWS Jacksonville, FL

Home | Current Version | Previous Version | Text Only | Print | Product List | Glossary On
Versions: 1 2 3 4 5 6 7 8 9 10 11 12 13 14 15 16 17 18 19 20 21 22 23 24
763
FTUS42 KJAX 182329
TAFJAX
TAF
KJAX 182329Z 1900/1924 00000KT P6SM SCT050 SCT150 BKN250
     FM190400 VRB03KT 5SM BR BKN250
     FM190600 VRB03KT 2SM BR SCT003 SCT250
     FM190900 VRB02KT 1SM BR BKN003
     FM191400 03005KT 5SM BR BKN007
     FM191500 06005KT P6SM SCT015=

USA.gov is the U.S. government's official web portal to all federal, state and local government web resources and services.